createdAt,value
2023-10-20T00:00:14.764Z,14.1
2023-10-20T00:01:14.425Z,14
2023-10-20T00:02:14.828Z,14.1
2023-10-20T00:03:14.311Z,14.2
2023-10-20T00:04:14.156Z,14.2
2023-10-20T00:05:14.638Z,14.1
2023-10-20T00:06:14.146Z,14.1
2023-10-20T00:07:14.158Z,14.2
2023-10-20T00:08:14.960Z,14.2
2023-10-20T00:09:14.674Z,14.2
2023-10-20T00:10:14.990Z,14.3
2023-10-20T00:11:14.213Z,14.3
2023-10-20T00:12:14.157Z,14.3
2023-10-20T00:13:14.956Z,14.3
2023-10-20T00:14:14.168Z,14.1
2023-10-20T00:15:14.167Z,14.2
2023-10-20T00:16:14.737Z,14.3
2023-10-20T00:17:14.461Z,14.2
2023-10-20T00:18:14.663Z,14.3
2023-10-20T00:19:14.548Z,14.4
2023-10-20T00:20:13.728Z,14.3
2023-10-20T00:21:14.564Z,14.2
2023-10-20T00:22:14.162Z,14.1
2023-10-20T00:23:14.690Z,14.2
2023-10-20T00:24:14.143Z,14.1
2023-10-20T00:25:14.142Z,14.2
2023-10-20T00:26:14.180Z,14.2
2023-10-20T00:27:14.394Z,14.2
2023-10-20T00:28:14.310Z,14.2
2023-10-20T00:29:14.447Z,14.2
2023-10-20T00:30:14.461Z,14.1
2023-10-20T00:31:14.223Z,14.2
2023-10-20T00:32:14.557Z,14.2
2023-10-20T00:33:14.432Z,14.3
2023-10-20T00:34:14.166Z,14.3
2023-10-20T00:35:14.237Z,14.2
2023-10-20T00:36:14.549Z,14.2
2023-10-20T00:37:14.144Z,14.2
2023-10-20T00:38:14.458Z,14.2
2023-10-20T00:39:14.150Z,14.2
2023-10-20T00:40:14.896Z,14.3
2023-10-20T00:41:14.186Z,14.2
2023-10-20T00:42:14.182Z,14.1
2023-10-20T00:43:14.491Z,14.1
2023-10-20T00:44:14.253Z,14.2
2023-10-20T00:45:14.486Z,14.2
2023-10-20T00:46:14.877Z,14.2
2023-10-20T00:47:14.824Z,14.2
2023-10-20T00:48:14.178Z,14.2
2023-10-20T00:49:14.473Z,14.1
2023-10-20T00:50:13.792Z,14.1
2023-10-20T00:51:14.161Z,14.2
2023-10-20T00:52:14.147Z,14.3
2023-10-20T00:53:14.904Z,14.2
2023-10-20T00:54:14.158Z,14.3
2023-10-20T00:55:14.160Z,14.2
2023-10-20T00:56:14.791Z,14.2
2023-10-20T00:58:14.175Z,14.2
2023-10-20T00:59:14.748Z,14.1
2023-10-20T01:00:14.187Z,14
2023-10-20T01:01:14.196Z,14.1
2023-10-20T01:02:14.419Z,14.1
2023-10-20T01:03:13.339Z,14.2
2023-10-20T01:04:15.173Z,14.1
2023-10-20T01:05:14.342Z,14.2
2023-10-20T01:06:14.299Z,14.2
2023-10-20T01:07:14.170Z,14.2
2023-10-20T01:08:14.989Z,14.2
2023-10-20T01:09:14.306Z,14.2
2023-10-20T01:10:14.744Z,14.1
2023-10-20T01:11:14.657Z,14.2
2023-10-20T01:12:14.163Z,14.2
2023-10-20T01:13:14.754Z,14.1
2023-10-20T01:14:13.259Z,14.1
2023-10-20T01:15:14.173Z,14.2
2023-10-20T01:16:14.205Z,14.1
2023-10-20T01:17:14.930Z,14.2
2023-10-20T01:18:14.193Z,14.1
2023-10-20T01:19:14.162Z,14.2
2023-10-20T01:20:13.286Z,14
2023-10-20T01:21:14.632Z,14.1
2023-10-20T01:22:14.327Z,14.1
2023-10-20T01:23:14.700Z,14.2
2023-10-20T01:24:14.909Z,14.2
2023-10-20T01:25:14.162Z,14.2
2023-10-20T01:26:14.200Z,14.3
2023-10-20T01:27:14.739Z,14.3
2023-10-20T01:28:14.156Z,14.2
2023-10-20T01:29:14.177Z,14.2
2023-10-20T01:30:14.633Z,14.2
2023-10-20T01:31:14.222Z,14.2
2023-10-20T01:32:14.184Z,14.3
2023-10-20T01:33:15.163Z,14.2
2023-10-20T01:34:14.285Z,14.2
2023-10-20T01:35:14.206Z,14.1
2023-10-20T01:36:14.554Z,14.2
2023-10-20T01:37:14.169Z,14.3
2023-10-20T01:38:14.380Z,14.2
2023-10-20T01:39:14.169Z,14.2
2023-10-20T01:40:14.161Z,14.1
2023-10-20T01:41:14.180Z,14.1
2023-10-20T01:42:14.327Z,14.1
2023-10-20T01:43:14.180Z,14.1
2023-10-20T01:44:14.679Z,14.2
2023-10-20T01:45:14.172Z,14.2
2023-10-20T01:46:14.959Z,14.3
2023-10-20T01:47:14.754Z,14.2
2023-10-20T01:48:14.186Z,14.3
2023-10-20T01:49:14.173Z,14.2
2023-10-20T01:50:13.617Z,14.2
2023-10-20T01:51:14.171Z,14.3
2023-10-20T01:52:14.325Z,14.2
2023-10-20T01:53:14.188Z,14.2
2023-10-20T01:54:14.185Z,14.2
2023-10-20T01:55:14.267Z,14.2
2023-10-20T01:56:14.246Z,14
2023-10-20T01:57:14.167Z,14.1
2023-10-20T01:58:14.694Z,14.1
2023-10-20T01:59:14.366Z,14.1
2023-10-20T02:00:15.152Z,14.1
2023-10-20T02:01:14.676Z,14.1
2023-10-20T02:02:14.898Z,14
2023-10-20T02:03:14.776Z,14.2
2023-10-20T02:04:14.849Z,14
2023-10-20T02:05:14.683Z,14
2023-10-20T02:06:14.184Z,14
2023-10-20T02:07:14.775Z,14.1
2023-10-20T02:08:14.653Z,14.1
2023-10-20T02:09:14.190Z,14.1
2023-10-20T02:10:14.174Z,14
2023-10-20T02:11:14.481Z,14.1
2023-10-20T02:12:14.384Z,14
2023-10-20T02:13:14.192Z,13.9
2023-10-20T02:14:14.844Z,14
2023-10-20T02:15:14.329Z,14
2023-10-20T02:16:14.412Z,14
2023-10-20T02:17:14.585Z,14
2023-10-20T02:18:14.471Z,14
2023-10-20T02:19:14.674Z,13.9
2023-10-20T02:20:14.074Z,14
2023-10-20T02:21:14.900Z,14
2023-10-20T02:23:14.590Z,14
2023-10-20T02:24:14.603Z,14
2023-10-20T02:25:14.581Z,14
2023-10-20T02:26:14.194Z,14
2023-10-20T02:27:14.762Z,14
2023-10-20T02:28:14.232Z,14
2023-10-20T02:29:14.462Z,14.1
2023-10-20T02:30:14.184Z,14
2023-10-20T02:31:14.245Z,14
2023-10-20T02:32:14.238Z,14
2023-10-20T02:33:14.262Z,14
2023-10-20T02:34:14.184Z,14
2023-10-20T02:35:14.879Z,14.1
2023-10-20T02:36:14.175Z,14
2023-10-20T02:37:15.110Z,14
2023-10-20T02:38:14.230Z,14
2023-10-20T02:39:14.191Z,14
2023-10-20T02:40:14.604Z,14
2023-10-20T02:41:14.754Z,14
2023-10-20T02:42:14.190Z,13.9
2023-10-20T02:43:16.054Z,13.8
2023-10-20T02:44:14.204Z,13.8
2023-10-20T02:45:14.189Z,13.9
2023-10-20T02:46:15.087Z,13.9
2023-10-20T02:47:15.109Z,14
2023-10-20T02:48:14.269Z,14
2023-10-20T02:49:14.172Z,13.9
2023-10-20T02:50:13.287Z,14
2023-10-20T02:51:14.790Z,14
2023-10-20T02:52:14.496Z,14
2023-10-20T02:53:15.013Z,14
2023-10-20T02:54:14.825Z,13.9
2023-10-20T02:55:14.723Z,14
2023-10-20T02:56:14.328Z,13.9
2023-10-20T02:57:14.196Z,14
2023-10-20T02:58:14.551Z,14
2023-10-20T02:59:14.542Z,13.9
2023-10-20T03:00:14.196Z,14
2023-10-20T03:01:14.245Z,14
2023-10-20T03:02:14.307Z,14
2023-10-20T03:03:14.327Z,13.9
2023-10-20T03:04:14.237Z,13.9
2023-10-20T03:05:14.839Z,13.9
2023-10-20T03:06:14.192Z,14
2023-10-20T03:07:14.844Z,14
2023-10-20T03:08:14.324Z,14
2023-10-20T03:09:14.169Z,13.9
2023-10-20T03:10:14.186Z,14
2023-10-20T03:11:15.015Z,14
2023-10-20T03:12:14.563Z,14
2023-10-20T03:13:14.537Z,14
2023-10-20T03:14:14.238Z,14
2023-10-20T03:15:14.195Z,14
2023-10-20T03:16:14.737Z,14
2023-10-20T03:17:14.238Z,14
2023-10-20T03:18:14.841Z,14
2023-10-20T03:19:14.205Z,14
2023-10-20T03:20:14.212Z,14
2023-10-20T03:21:14.187Z,14
2023-10-20T03:22:14.564Z,14.1
2023-10-20T03:23:14.223Z,14.1
2023-10-20T03:24:15.092Z,14
2023-10-20T03:25:14.209Z,14.1
2023-10-20T03:26:14.674Z,14
2023-10-20T03:27:14.794Z,14.1
2023-10-20T03:28:14.925Z,14.1
2023-10-20T03:29:14.284Z,14.1
2023-10-20T03:30:14.197Z,14.2
2023-10-20T03:31:14.262Z,14.2
2023-10-20T03:32:14.223Z,14.2
2023-10-20T03:33:13.985Z,14.2
2023-10-20T03:34:14.172Z,14.2
2023-10-20T03:36:14.182Z,14.1
2023-10-20T03:37:14.453Z,14.1
2023-10-20T03:38:14.238Z,14
2023-10-20T03:39:14.556Z,14
2023-10-20T03:40:14.181Z,14
2023-10-20T03:41:14.593Z,14
2023-10-20T03:42:14.176Z,14.1
2023-10-20T03:43:14.196Z,14.1
2023-10-20T03:44:14.205Z,14.1
2023-10-20T03:45:14.193Z,14.1
2023-10-20T03:46:15.124Z,14
2023-10-20T03:47:14.198Z,14.1
2023-10-20T03:48:14.192Z,14.1
2023-10-20T03:49:14.194Z,14
2023-10-20T03:50:13.780Z,14.1
2023-10-20T03:51:14.411Z,14
2023-10-20T03:52:14.183Z,14.1
2023-10-20T03:53:14.469Z,14.1
2023-10-20T03:54:14.194Z,14.1
2023-10-20T03:55:14.198Z,14.1
2023-10-20T03:56:14.219Z,14
2023-10-20T03:57:14.304Z,14
2023-10-20T03:58:14.182Z,14
2023-10-20T03:59:14.634Z,14
2023-10-20T04:00:14.199Z,14
2023-10-20T04:01:14.922Z,14
2023-10-20T04:02:14.276Z,14
2023-10-20T04:03:14.940Z,14
2023-10-20T04:04:14.273Z,14
2023-10-20T04:05:16.250Z,13.9
2023-10-20T04:06:14.413Z,14
2023-10-20T04:07:14.349Z,14
2023-10-20T04:08:15.029Z,14
2023-10-20T04:09:14.687Z,14.1
2023-10-20T04:10:14.881Z,14
2023-10-20T04:11:14.242Z,14
2023-10-20T04:12:14.578Z,14
2023-10-20T04:13:14.196Z,14
2023-10-20T04:14:14.212Z,14
2023-10-20T04:15:14.197Z,14
2023-10-20T04:16:14.745Z,14
2023-10-20T04:17:14.556Z,14
2023-10-20T04:18:14.471Z,14
2023-10-20T04:19:14.208Z,14
2023-10-20T04:20:13.600Z,14
2023-10-20T04:21:14.225Z,14
2023-10-20T04:22:15.079Z,13.9
2023-10-20T04:23:15.136Z,14
2023-10-20T04:24:14.746Z,13.9
2023-10-20T04:25:14.211Z,14
2023-10-20T04:26:14.243Z,14
2023-10-20T04:28:14.402Z,13.9
2023-10-20T04:29:14.264Z,13.9
2023-10-20T04:30:14.997Z,14
2023-10-20T04:31:14.372Z,14
2023-10-20T04:32:14.265Z,14
2023-10-20T04:33:14.348Z,13.8
2023-10-20T04:34:14.177Z,13.8
2023-10-20T04:35:14.206Z,13.8
2023-10-20T04:36:14.242Z,13.8
2023-10-20T04:37:14.731Z,14
2023-10-20T04:38:14.200Z,13.9
2023-10-20T04:39:14.699Z,13.9
2023-10-20T04:40:14.225Z,14
2023-10-20T04:41:14.214Z,14
2023-10-20T04:42:14.172Z,13.9
2023-10-20T04:43:14.206Z,13.8
2023-10-20T04:44:14.975Z,13.8
2023-10-20T04:45:14.173Z,13.9
2023-10-20T04:46:14.207Z,13.8
2023-10-20T04:47:14.229Z,13.8
2023-10-20T04:48:14.423Z,13.8
2023-10-20T04:49:14.286Z,13.7
2023-10-20T04:50:13.544Z,13.7
2023-10-20T04:51:14.332Z,13.8
2023-10-20T04:52:14.248Z,13.7
2023-10-20T04:53:15.090Z,13.7
2023-10-20T04:54:14.762Z,13.6
2023-10-20T04:55:14.724Z,13.6
2023-10-20T04:56:14.899Z,13.7
2023-10-20T04:57:14.208Z,13.6
2023-10-20T04:58:14.824Z,13.6
2023-10-20T04:59:14.229Z,13.6
2023-10-20T05:00:14.185Z,13.6
2023-10-20T05:01:14.229Z,13.6
2023-10-20T05:02:14.705Z,13.6
2023-10-20T05:03:14.201Z,13.6
2023-10-20T05:04:14.193Z,13.7
2023-10-20T05:05:14.660Z,13.7
2023-10-20T05:06:14.192Z,13.6
2023-10-20T05:07:14.181Z,13.6
2023-10-20T05:08:14.254Z,13.7
2023-10-20T05:09:14.493Z,13.7
2023-10-20T05:10:14.190Z,13.7
2023-10-20T05:11:14.429Z,13.6
2023-10-20T05:12:14.170Z,13.7
2023-10-20T05:13:14.176Z,13.8
2023-10-20T05:14:14.917Z,13.7
2023-10-20T05:15:14.635Z,13.7
2023-10-20T05:16:14.211Z,13.7
2023-10-20T05:17:14.208Z,13.7
2023-10-20T05:18:15.476Z,13.7
2023-10-20T05:19:14.482Z,13.7
2023-10-20T05:20:13.869Z,13.7
2023-10-20T05:21:14.182Z,13.7
2023-10-20T05:22:14.676Z,13.9
2023-10-20T05:23:14.473Z,13.7
2023-10-20T05:24:14.360Z,13.7
2023-10-20T05:25:14.219Z,13.6
2023-10-20T05:26:14.200Z,13.6
2023-10-20T05:27:14.191Z,13.5
2023-10-20T05:28:14.184Z,13.5
2023-10-20T05:29:14.198Z,13.5
2023-10-20T05:30:14.164Z,13.6
2023-10-20T05:31:14.204Z,13.5
2023-10-20T05:32:14.226Z,13.5
2023-10-20T05:33:14.929Z,13.5
2023-10-20T05:34:14.935Z,13.6
2023-10-20T05:35:14.201Z,13.5
2023-10-20T05:36:14.881Z,13.5
2023-10-20T05:37:14.183Z,13.5
2023-10-20T05:38:14.778Z,13.5
2023-10-20T05:39:14.198Z,13.6
2023-10-20T05:40:14.207Z,13.6
2023-10-20T05:41:14.218Z,13.5
2023-10-20T05:42:14.183Z,13.5
2023-10-20T05:43:14.243Z,13.5
2023-10-20T05:44:14.316Z,13.5
2023-10-20T05:45:14.187Z,13.5
2023-10-20T05:46:14.205Z,13.4
2023-10-20T05:47:14.261Z,13.5
2023-10-20T05:48:14.344Z,13.5
2023-10-20T05:49:14.245Z,13.5
2023-10-20T05:50:13.355Z,13.5
2023-10-20T05:51:14.586Z,13.5
2023-10-20T05:52:14.209Z,13.6
2023-10-20T05:53:14.209Z,13.5
2023-10-20T05:54:14.368Z,13.5
2023-10-20T05:55:14.201Z,13.5
2023-10-20T05:56:14.486Z,13.6
2023-10-20T05:57:14.205Z,13.5
2023-10-20T05:58:14.310Z,13.5
2023-10-20T05:59:14.359Z,13.5
2023-10-20T06:00:14.217Z,13.5
2023-10-20T06:01:14.855Z,13.5
2023-10-20T06:02:14.240Z,13.5
2023-10-20T06:03:15.146Z,13.5
2023-10-20T06:04:14.979Z,13.5
2023-10-20T06:05:14.289Z,13.6
2023-10-20T06:06:14.208Z,13.5
2023-10-20T06:07:14.736Z,13.5
2023-10-20T06:08:14.473Z,13.5
2023-10-20T06:09:14.196Z,13.5
2023-10-20T06:10:14.200Z,13.5
2023-10-20T06:11:14.425Z,13.5
2023-10-20T06:12:14.928Z,13.5
2023-10-20T06:13:14.999Z,13.4
2023-10-20T06:14:14.205Z,13.5
2023-10-20T06:15:14.501Z,13.5
2023-10-20T06:16:15.032Z,13.4
2023-10-20T06:17:14.230Z,13.5
2023-10-20T06:18:25.272Z,13.5
2023-10-20T06:19:15.152Z,13.5
2023-10-20T06:20:13.878Z,13.4
2023-10-20T06:21:14.617Z,13.4
2023-10-20T06:22:14.384Z,13.3
2023-10-20T06:24:14.201Z,13.3
2023-10-20T06:25:14.645Z,13.3
2023-10-20T06:26:14.468Z,13.4
2023-10-20T06:27:14.746Z,13.3
2023-10-20T06:28:14.329Z,13.4
2023-10-20T06:29:14.358Z,13.4
2023-10-20T06:30:14.235Z,13.4
2023-10-20T06:31:14.230Z,13.3
2023-10-20T06:32:15.024Z,13.3
2023-10-20T06:33:14.364Z,13.3
2023-10-20T06:34:14.219Z,13.4
2023-10-20T06:35:14.256Z,13.4
2023-10-20T06:36:14.196Z,13.3
2023-10-20T06:37:14.984Z,13.5
2023-10-20T06:38:14.754Z,13.5
2023-10-20T06:39:14.811Z,13.5
2023-10-20T06:40:14.209Z,13.4
2023-10-20T06:41:14.699Z,13.5
2023-10-20T06:42:14.214Z,13.5
2023-10-20T06:43:14.208Z,13.5
2023-10-20T06:44:14.403Z,13.6
2023-10-20T06:45:14.237Z,13.5
2023-10-20T06:46:15.144Z,13.5
2023-10-20T06:47:14.222Z,13.4
2023-10-20T06:48:14.315Z,13.4
2023-10-20T06:49:14.195Z,13.3
2023-10-20T06:50:13.291Z,13.4
2023-10-20T06:51:14.243Z,13.3
2023-10-20T06:52:14.189Z,13.4
2023-10-20T06:53:14.215Z,13.3
2023-10-20T06:54:14.197Z,13.3
2023-10-20T06:56:16.731Z,13.4
2023-10-20T06:57:14.279Z,13.5
2023-10-20T06:58:14.714Z,13.4
2023-10-20T06:59:14.252Z,13.5
2023-10-20T07:00:14.299Z,13.5
2023-10-20T07:01:14.640Z,13.5
2023-10-20T07:02:14.595Z,13.4
2023-10-20T07:03:14.348Z,13.5
2023-10-20T07:04:15.279Z,13.5
2023-10-20T07:06:14.194Z,13.5
2023-10-20T07:07:14.200Z,13.5
2023-10-20T07:08:14.664Z,13.4
2023-10-20T07:09:14.195Z,13.5
2023-10-20T07:10:14.209Z,13.5
2023-10-20T07:11:14.267Z,13.4
2023-10-20T07:12:15.164Z,13.5
2023-10-20T07:13:14.993Z,13.5
2023-10-20T07:14:14.234Z,13.4
2023-10-20T07:15:14.764Z,13.5
2023-10-20T07:16:14.249Z,13.4
2023-10-20T07:17:15.065Z,13.4
2023-10-20T07:18:14.466Z,13.4
2023-10-20T07:19:14.512Z,13.4
2023-10-20T07:20:13.729Z,13.5
2023-10-20T07:21:14.313Z,13.4
2023-10-20T07:22:14.491Z,13.4
2023-10-20T07:23:14.471Z,13.4
2023-10-20T07:24:14.709Z,13.5
2023-10-20T07:25:14.601Z,13.5
2023-10-20T07:26:14.253Z,13.4
2023-10-20T07:27:14.209Z,13.3
2023-10-20T07:28:14.208Z,13.3
2023-10-20T07:29:14.233Z,13.2
2023-10-20T07:30:14.218Z,13.4
2023-10-20T07:31:14.755Z,13.5
2023-10-20T07:32:14.207Z,13.3
2023-10-20T07:33:15.096Z,13.4
2023-10-20T07:34:14.211Z,13.3
2023-10-20T07:35:14.345Z,13.3
2023-10-20T07:36:14.195Z,13.4
2023-10-20T07:37:14.263Z,13.4
2023-10-20T07:38:14.469Z,13.4
2023-10-20T07:39:14.221Z,13.4
2023-10-20T07:40:14.281Z,13.4
2023-10-20T07:42:14.263Z,13.5
2023-10-20T07:43:14.290Z,13.5
2023-10-20T07:44:14.539Z,13.5
2023-10-20T07:45:14.500Z,13.4
2023-10-20T07:46:14.652Z,13.3
2023-10-20T07:47:14.216Z,13.3
2023-10-20T07:48:14.430Z,13.3
2023-10-20T07:49:14.465Z,13.4
2023-10-20T07:50:13.759Z,13.3
2023-10-20T07:51:14.992Z,13.5
2023-10-20T07:52:14.252Z,13.3
2023-10-20T07:53:14.298Z,13.4
2023-10-20T07:54:14.975Z,13.3
2023-10-20T07:55:14.858Z,13.4
2023-10-20T07:56:14.721Z,13.4
2023-10-20T07:57:16.128Z,13.5
2023-10-20T07:58:14.778Z,13.5
2023-10-20T07:59:14.247Z,13.5
2023-10-20T08:00:14.803Z,13.5
2023-10-20T08:01:14.319Z,13.5
2023-10-20T08:02:14.348Z,13.4
2023-10-20T08:03:15.286Z,13.5
2023-10-20T08:04:15.098Z,13.5
2023-10-20T08:05:14.527Z,13.5
2023-10-20T08:06:15.453Z,13.5
2023-10-20T08:07:14.570Z,13.6
2023-10-20T08:08:14.280Z,13.5
2023-10-20T08:09:14.225Z,13.6
2023-10-20T08:10:14.284Z,13.5
2023-10-20T08:11:14.364Z,13.5
2023-10-20T08:12:15.757Z,13.5
2023-10-20T08:13:14.374Z,13.5
2023-10-20T08:14:14.298Z,13.5
2023-10-20T08:15:14.951Z,13.5
2023-10-20T08:16:14.587Z,13.6
2023-10-20T08:17:14.528Z,13.6
2023-10-20T08:18:14.855Z,13.5
2023-10-20T08:19:14.205Z,13.5
2023-10-20T08:20:13.728Z,13.6
2023-10-20T08:21:14.216Z,13.5
2023-10-20T08:22:14.215Z,13.6
2023-10-20T08:23:14.342Z,13.5
2023-10-20T08:24:14.320Z,13.5
2023-10-20T08:25:14.209Z,13.4
2023-10-20T08:26:14.289Z,13.4
2023-10-20T08:27:14.688Z,13.4
2023-10-20T08:28:14.370Z,13.5
2023-10-20T08:30:14.761Z,13.5
2023-10-20T08:31:14.246Z,13.5
2023-10-20T08:32:14.245Z,13.5
2023-10-20T08:33:13.388Z,13.5
2023-10-20T08:34:14.485Z,13.6
2023-10-20T08:35:14.362Z,13.7
2023-10-20T08:37:14.207Z,13.5
2023-10-20T08:38:14.237Z,13.5
2023-10-20T08:39:14.969Z,13.5
2023-10-20T08:40:14.226Z,13.5
2023-10-20T08:41:14.227Z,13.6
2023-10-20T08:42:14.242Z,13.5
2023-10-20T08:43:14.717Z,13.6
2023-10-20T08:44:14.442Z,13.6
2023-10-20T08:45:14.601Z,13.6
2023-10-20T08:46:14.971Z,13.6
2023-10-20T08:47:14.254Z,13.6
2023-10-20T08:48:15.187Z,13.5
2023-10-20T08:49:14.207Z,13.7
2023-10-20T08:50:13.698Z,13.6
2023-10-20T08:51:14.205Z,13.5
2023-10-20T08:52:14.975Z,13.5
2023-10-20T08:53:14.527Z,13.6
2023-10-20T08:54:14.221Z,13.7
2023-10-20T08:55:15.148Z,13.7
2023-10-20T08:56:14.692Z,13.6
2023-10-20T08:57:14.839Z,13.6
2023-10-20T08:58:14.516Z,13.6
2023-10-20T08:59:14.283Z,13.6
2023-10-20T09:00:14.229Z,13.7
2023-10-20T09:01:15.981Z,13.7
2023-10-20T09:02:14.264Z,13.7
2023-10-20T09:03:15.072Z,13.8
2023-10-20T09:04:15.226Z,13.7
2023-10-20T09:05:14.297Z,13.7
2023-10-20T09:06:14.222Z,13.8
2023-10-20T09:07:14.642Z,13.8
2023-10-20T09:08:15.052Z,13.7
2023-10-20T09:09:14.224Z,13.7
2023-10-20T09:10:14.674Z,13.7
2023-10-20T09:11:14.261Z,13.8
2023-10-20T09:12:14.602Z,13.6
2023-10-20T09:13:14.956Z,13.6
2023-10-20T09:14:14.278Z,13.6
2023-10-20T09:15:14.232Z,13.7
2023-10-20T09:16:14.300Z,13.7
2023-10-20T09:17:14.243Z,13.6
2023-10-20T09:18:14.320Z,13.7
2023-10-20T09:19:13.309Z,13.7
2023-10-20T09:20:13.750Z,13.7
2023-10-20T09:21:14.718Z,13.7
2023-10-20T09:22:14.515Z,13.8
2023-10-20T09:23:14.711Z,13.8
2023-10-20T09:24:14.715Z,13.8
2023-10-20T09:25:14.964Z,13.8
2023-10-20T09:26:14.665Z,13.8
2023-10-20T09:27:14.821Z,13.9
2023-10-20T09:28:14.236Z,13.9
2023-10-20T09:29:14.256Z,13.9
2023-10-20T09:30:14.224Z,13.8
2023-10-20T09:31:14.692Z,13.8
2023-10-20T09:32:14.228Z,13.8
2023-10-20T09:33:15.107Z,13.8
2023-10-20T09:34:14.676Z,13.8
2023-10-20T09:35:14.248Z,13.8
2023-10-20T09:36:14.244Z,13.8
2023-10-20T09:37:14.218Z,13.8
2023-10-20T09:38:14.331Z,13.9
2023-10-20T09:39:14.579Z,13.9
2023-10-20T09:40:14.711Z,13.9
2023-10-20T09:41:14.241Z,13.9
2023-10-20T09:42:14.941Z,13.9
2023-10-20T09:43:25.049Z,13.9
2023-10-20T09:44:14.862Z,13.9
2023-10-20T09:45:14.683Z,13.9
2023-10-20T09:46:14.350Z,13.9
2023-10-20T09:47:14.288Z,13.8
2023-10-20T09:48:14.711Z,13.9
2023-10-20T09:49:14.836Z,13.9
2023-10-20T09:50:14.013Z,13.9
2023-10-20T09:51:14.819Z,13.8
2023-10-20T09:52:14.645Z,13.9
2023-10-20T09:53:14.240Z,14
2023-10-20T09:54:14.620Z,14
2023-10-20T09:55:14.903Z,13.9
2023-10-20T09:56:15.214Z,13.9
2023-10-20T09:57:14.233Z,14
2023-10-20T09:58:14.248Z,14
2023-10-20T09:59:14.280Z,14
2023-10-20T10:00:14.241Z,14
2023-10-20T10:01:14.970Z,14
2023-10-20T10:02:15.227Z,14
2023-10-20T10:03:14.526Z,14
2023-10-20T10:04:14.299Z,13.9
2023-10-20T10:05:14.278Z,13.9
2023-10-20T10:06:14.302Z,13.9
2023-10-20T10:07:14.854Z,14
2023-10-20T10:08:14.922Z,14
2023-10-20T10:09:14.245Z,14
2023-10-20T10:10:14.825Z,13.9
2023-10-20T10:11:15.113Z,13.9
2023-10-20T10:12:14.238Z,13.9
2023-10-20T10:13:14.295Z,14
2023-10-20T10:14:14.875Z,14
2023-10-20T10:15:14.326Z,14
2023-10-20T10:16:14.983Z,14
2023-10-20T10:17:14.741Z,14
2023-10-20T10:18:14.342Z,14
2023-10-20T10:19:14.972Z,14
2023-10-20T10:20:13.397Z,14
2023-10-20T10:21:14.277Z,14
2023-10-20T10:23:15.158Z,14
2023-10-20T10:24:14.215Z,14
2023-10-20T10:25:14.622Z,14
2023-10-20T10:26:14.296Z,14
2023-10-20T10:27:14.321Z,14
2023-10-20T10:28:14.960Z,14
2023-10-20T10:29:16.231Z,14
2023-10-20T10:30:17.026Z,14
2023-10-20T10:31:14.721Z,14.1
2023-10-20T10:32:15.252Z,14
2023-10-20T10:33:14.279Z,14
2023-10-20T10:34:14.236Z,14.1
2023-10-20T10:35:14.384Z,14
2023-10-20T10:36:14.490Z,14
2023-10-20T10:37:14.245Z,14
2023-10-20T10:38:14.287Z,14
2023-10-20T10:39:14.236Z,14
2023-10-20T10:40:14.223Z,14.1
2023-10-20T10:41:14.422Z,14
2023-10-20T10:42:14.239Z,14
2023-10-20T10:43:14.283Z,14
2023-10-20T10:44:14.234Z,14
2023-10-20T10:45:14.641Z,14
2023-10-20T10:46:14.980Z,14
2023-10-20T10:47:14.555Z,14
2023-10-20T10:48:14.370Z,14
2023-10-20T10:49:14.381Z,14
2023-10-20T10:50:13.300Z,14
2023-10-20T10:51:14.776Z,14
2023-10-20T10:52:14.467Z,14
2023-10-20T10:53:14.731Z,14
2023-10-20T10:54:14.250Z,14
2023-10-20T10:55:15.197Z,13.9
2023-10-20T10:56:14.886Z,14
2023-10-20T10:57:13.306Z,13.9
2023-10-20T10:58:15.224Z,13.9
2023-10-20T10:59:15.256Z,13.9
2023-10-20T11:00:14.233Z,13.9
2023-10-20T11:01:14.270Z,14
2023-10-20T11:02:14.403Z,13.9
2023-10-20T11:03:14.070Z,13.8
2023-10-20T11:04:14.353Z,13.9
2023-10-20T11:05:14.993Z,13.8
2023-10-20T11:06:14.979Z,13.8
2023-10-20T11:07:14.293Z,13.9
2023-10-20T11:08:15.865Z,13.9
2023-10-20T11:09:17.423Z,13.9
2023-10-20T11:10:15.333Z,13.9
2023-10-20T11:11:14.237Z,13.8
2023-10-20T11:12:14.267Z,13.9
2023-10-20T11:13:14.247Z,13.9
2023-10-20T11:14:14.239Z,13.8
2023-10-20T11:15:15.232Z,13.9
2023-10-20T11:16:14.323Z,13.9
2023-10-20T11:17:14.224Z,13.9
2023-10-20T11:18:14.833Z,13.8
2023-10-20T11:19:14.254Z,14
2023-10-20T11:20:13.815Z,14
2023-10-20T11:21:14.624Z,14
2023-10-20T11:22:14.973Z,14
2023-10-20T11:23:15.102Z,14
2023-10-20T11:24:14.555Z,14
2023-10-20T11:25:15.015Z,14
2023-10-20T11:26:14.676Z,14
2023-10-20T11:27:14.254Z,14
2023-10-20T11:28:14.240Z,13.9
2023-10-20T11:29:14.655Z,13.9
2023-10-20T11:30:15.127Z,13.8
2023-10-20T11:31:14.414Z,13.7
2023-10-20T11:32:14.244Z,13.9
2023-10-20T11:33:16.842Z,13.9
2023-10-20T11:34:14.249Z,13.9
2023-10-20T11:35:14.772Z,13.9
2023-10-20T11:36:14.287Z,13.8
2023-10-20T11:37:14.253Z,13.9
2023-10-20T11:38:14.253Z,14
2023-10-20T11:39:14.678Z,14
2023-10-20T11:40:14.868Z,14
2023-10-20T11:41:14.262Z,13.9
2023-10-20T11:42:14.253Z,13.8
2023-10-20T11:43:14.521Z,13.9
2023-10-20T11:44:14.251Z,13.8
2023-10-20T11:45:14.470Z,14
2023-10-20T11:46:14.284Z,14
2023-10-20T11:47:14.252Z,13.9
2023-10-20T11:48:14.646Z,13.9
2023-10-20T11:49:14.265Z,13.9
2023-10-20T11:50:13.346Z,13.9
2023-10-20T11:51:15.034Z,13.9
2023-10-20T11:52:14.724Z,13.9
2023-10-20T11:53:14.252Z,13.9
2023-10-20T11:54:14.866Z,13.9
2023-10-20T11:55:14.271Z,13.9
2023-10-20T11:56:14.691Z,13.9
2023-10-20T11:57:14.256Z,13.8
2023-10-20T11:58:14.892Z,14
2023-10-20T11:59:15.052Z,13.9
2023-10-20T12:00:14.251Z,13.9
2023-10-20T12:01:14.422Z,13.8
2023-10-20T12:02:14.388Z,14
2023-10-20T12:03:14.414Z,13.9
2023-10-20T12:04:15.092Z,13.8
2023-10-20T12:05:14.269Z,13.9
2023-10-20T12:06:14.981Z,14
2023-10-20T12:07:14.270Z,14
2023-10-20T12:08:14.257Z,13.9
2023-10-20T12:09:15.207Z,13.9
2023-10-20T12:10:14.287Z,14
2023-10-20T12:11:15.150Z,13.9
2023-10-20T12:12:15.015Z,14
2023-10-20T12:13:14.249Z,14
2023-10-20T12:14:14.281Z,14
2023-10-20T12:15:14.269Z,14
2023-10-20T12:16:14.291Z,14
2023-10-20T12:17:14.327Z,14
2023-10-20T12:18:14.343Z,14
2023-10-20T12:19:14.266Z,14
2023-10-20T12:20:14.023Z,14
2023-10-20T12:21:14.661Z,14
2023-10-20T12:22:14.266Z,14
2023-10-20T12:23:14.913Z,14
2023-10-20T12:24:14.814Z,14
2023-10-20T12:25:14.280Z,14
2023-10-20T12:26:14.282Z,14
2023-10-20T12:27:15.221Z,14.1
2023-10-20T12:28:14.287Z,14.1
2023-10-20T12:29:14.277Z,14
2023-10-20T12:30:14.742Z,14.1
2023-10-20T12:31:14.347Z,14.1
2023-10-20T12:32:14.565Z,14.1
2023-10-20T12:33:13.448Z,14.1
2023-10-20T12:34:14.329Z,14.1
2023-10-20T12:35:14.282Z,14.2
2023-10-20T12:36:14.520Z,14.1
2023-10-20T12:37:15.179Z,14
2023-10-20T12:38:15.072Z,14.1
2023-10-20T12:39:14.262Z,14
2023-10-20T12:40:14.304Z,14
2023-10-20T12:41:14.823Z,14
2023-10-20T12:42:15.168Z,14
2023-10-20T12:43:15.123Z,14
2023-10-20T12:44:14.447Z,14
2023-10-20T12:45:14.278Z,14
2023-10-20T12:46:14.629Z,14
2023-10-20T12:47:15.006Z,14
2023-10-20T12:48:14.895Z,14.1
2023-10-20T12:49:15.402Z,14
2023-10-20T12:50:13.346Z,14
2023-10-20T12:51:14.350Z,14
2023-10-20T12:52:14.376Z,14
2023-10-20T12:53:14.285Z,14
2023-10-20T12:54:14.296Z,14
2023-10-20T12:56:14.269Z,14
2023-10-20T12:57:14.289Z,13.9
2023-10-20T12:58:14.274Z,13.9
2023-10-20T12:59:14.284Z,14
2023-10-20T13:00:14.277Z,14
2023-10-20T13:01:15.263Z,14
2023-10-20T13:02:14.433Z,14
2023-10-20T13:03:14.647Z,14
2023-10-20T13:04:14.367Z,14
2023-10-20T13:05:14.653Z,13.9
2023-10-20T13:06:14.585Z,14
2023-10-20T13:07:15.190Z,14
2023-10-20T13:08:14.281Z,13.8
2023-10-20T13:09:14.345Z,13.9
2023-10-20T13:11:14.273Z,13.8
2023-10-20T13:12:14.277Z,13.9
2023-10-20T13:13:16.590Z,13.9
2023-10-20T13:14:14.290Z,14
2023-10-20T13:15:14.282Z,14
2023-10-20T13:16:14.410Z,13.9
2023-10-20T13:17:14.313Z,14
2023-10-20T13:18:14.487Z,13.9
2023-10-20T13:19:15.270Z,13.9
2023-10-20T13:20:13.544Z,14
2023-10-20T13:21:14.802Z,14
2023-10-20T13:22:14.341Z,14.1
2023-10-20T13:23:14.994Z,14
2023-10-20T13:24:14.300Z,14.1
2023-10-20T13:25:15.486Z,14
2023-10-20T13:26:14.274Z,14.1
2023-10-20T13:27:15.141Z,14.1
2023-10-20T13:28:14.307Z,14.1
2023-10-20T13:29:15.127Z,14.1
2023-10-20T13:30:14.281Z,14.1
2023-10-20T13:32:14.902Z,14.1
2023-10-20T13:33:13.837Z,14.1
2023-10-20T13:34:14.289Z,14.1
2023-10-20T13:35:15.125Z,14
2023-10-20T13:36:15.238Z,14
2023-10-20T13:37:14.295Z,14.1
2023-10-20T13:38:18.819Z,14.1
2023-10-20T13:39:18.286Z,14.2
2023-10-20T13:40:14.868Z,14.1
2023-10-20T13:41:14.322Z,14
2023-10-20T13:42:15.152Z,14
2023-10-20T13:43:14.281Z,14.1
2023-10-20T13:44:14.288Z,14
2023-10-20T13:45:14.302Z,14
2023-10-20T13:46:14.344Z,14
2023-10-20T13:47:14.712Z,14.1